createdAt,value
2017-08-06T00:01:04.597Z,19.80
2017-08-06T00:03:32.462Z,19.70
2017-08-06T00:06:00.279Z,19.70
2017-08-06T00:08:28.092Z,19.60
2017-08-06T00:10:56.710Z,19.50
2017-08-06T00:13:24.515Z,19.50
2017-08-06T00:15:52.380Z,19.50
2017-08-06T00:18:20.204Z,19.40
2017-08-06T00:20:48.012Z,19.40
2017-08-06T00:23:15.861Z,19.40
2017-08-06T00:25:43.681Z,19.30
2017-08-06T00:28:11.540Z,19.30
2017-08-06T00:30:39.342Z,19.30
2017-08-06T00:33:07.169Z,19.20
2017-08-06T00:35:35.019Z,19.20
2017-08-06T00:38:03.602Z,19.10
2017-08-06T00:40:32.259Z,19.10
2017-08-06T00:43:00.068Z,19.10
2017-08-06T00:45:27.882Z,19.10
2017-08-06T00:47:55.748Z,19.10
2017-08-06T00:50:23.571Z,19.20
2017-08-06T00:52:51.446Z,19.20
2017-08-06T00:55:19.253Z,19.10
2017-08-06T00:57:47.855Z,19.10
2017-08-06T01:00:15.808Z,19.10
2017-08-06T01:02:44.401Z,19.00
2017-08-06T01:05:12.287Z,19.00
2017-08-06T01:07:40.101Z,18.90
2017-08-06T01:10:08.681Z,18.90
2017-08-06T01:12:37.293Z,18.90
2017-08-06T01:15:05.120Z,18.90
2017-08-06T01:17:32.978Z,19.00
2017-08-06T01:20:00.853Z,18.90
2017-08-06T01:22:29.465Z,19.00
2017-08-06T01:24:57.324Z,19.00
2017-08-06T01:27:25.154Z,18.90
2017-08-06T01:29:53.024Z,18.90
2017-08-06T01:32:21.605Z,18.80
2017-08-06T01:34:50.212Z,18.70
2017-08-06T01:37:18.055Z,18.70
2017-08-06T01:39:46.631Z,18.60
2017-08-06T01:42:15.292Z,18.50
2017-08-06T01:44:43.132Z,18.50
2017-08-06T01:47:10.992Z,18.50
2017-08-06T01:49:38.834Z,18.40
2017-08-06T01:52:06.679Z,18.40
2017-08-06T01:54:35.331Z,18.40
2017-08-06T01:57:03.161Z,18.40
2017-08-06T01:59:31.029Z,18.40
2017-08-06T02:01:58.960Z,18.40
2017-08-06T02:04:27.551Z,18.50
2017-08-06T02:06:55.426Z,18.50
2017-08-06T02:09:23.239Z,18.60
2017-08-06T02:11:51.060Z,18.70
2017-08-06T02:14:18.895Z,18.70
2017-08-06T02:16:46.683Z,18.60
2017-08-06T02:19:14.870Z,18.50
2017-08-06T02:21:42.767Z,18.40
2017-08-06T02:24:10.576Z,18.30
2017-08-06T02:26:38.418Z,18.10
2017-08-06T02:29:06.232Z,18.10
2017-08-06T02:31:34.108Z,18.10
2017-08-06T02:34:01.939Z,18.00
2017-08-06T02:36:29.743Z,18.00
2017-08-06T02:38:57.587Z,17.90
2017-08-06T02:41:25.402Z,17.90
2017-08-06T02:43:53.280Z,17.90
2017-08-06T02:46:21.140Z,17.90
2017-08-06T02:48:48.967Z,17.80
2017-08-06T02:51:17.580Z,17.80
2017-08-06T02:53:45.391Z,17.80
2017-08-06T02:56:13.289Z,17.80
2017-08-06T02:58:41.868Z,17.90
2017-08-06T03:01:10.496Z,18.00
2017-08-06T03:03:38.356Z,18.00
2017-08-06T03:06:06.163Z,18.10
2017-08-06T03:08:34.028Z,18.10
2017-08-06T03:11:02.655Z,18.20
2017-08-06T03:13:30.473Z,18.10
2017-08-06T03:15:59.087Z,18.20
2017-08-06T03:18:26.895Z,18.10
2017-08-06T03:20:54.808Z,18.10
2017-08-06T03:23:22.635Z,18.10
2017-08-06T03:25:50.452Z,18.10
2017-08-06T03:28:18.299Z,18.10
2017-08-06T03:30:46.104Z,18.00
2017-08-06T03:33:13.965Z,18.00
2017-08-06T03:35:41.780Z,18.00
2017-08-06T03:38:09.596Z,17.90
2017-08-06T03:40:37.442Z,17.80
2017-08-06T03:43:05.264Z,17.80
2017-08-06T03:45:33.976Z,17.70
2017-08-06T03:48:01.795Z,17.70
2017-08-06T03:50:29.603Z,17.60
2017-08-06T03:52:57.453Z,17.60
2017-08-06T03:55:25.267Z,17.60
2017-08-06T03:57:53.133Z,17.60
2017-08-06T04:00:20.952Z,17.60
2017-08-06T04:02:48.787Z,17.70
2017-08-06T04:05:17.388Z,17.70
2017-08-06T04:07:45.188Z,17.70
2017-08-06T04:10:13.060Z,17.70
2017-08-06T04:12:40.867Z,17.80
2017-08-06T04:15:08.692Z,17.80
2017-08-06T04:17:36.545Z,17.90
2017-08-06T04:20:04.371Z,17.80
2017-08-06T04:22:32.256Z,17.90
2017-08-06T04:25:00.080Z,18.00
2017-08-06T04:27:28.677Z,18.20
2017-08-06T04:29:56.532Z,18.20
2017-08-06T04:32:24.352Z,18.50
2017-08-06T04:34:52.230Z,19.00
2017-08-06T04:37:20.049Z,19.60
2017-08-06T04:39:47.865Z,19.90
2017-08-06T04:42:15.709Z,20.30
2017-08-06T04:44:43.589Z,20.50
2017-08-06T04:47:11.467Z,20.80
2017-08-06T04:49:40.055Z,21.10
2017-08-06T04:52:07.869Z,21.00
2017-08-06T04:54:35.730Z,21.20
2017-08-06T04:57:03.543Z,21.10
2017-08-06T04:59:31.442Z,21.10
2017-08-06T05:01:59.272Z,21.20
2017-08-06T05:04:27.110Z,21.50
2017-08-06T05:06:55.723Z,22.20
2017-08-06T05:09:23.549Z,22.20
2017-08-06T05:11:52.208Z,22.30
2017-08-06T05:14:20.054Z,22.30
2017-08-06T05:16:47.864Z,22.30
2017-08-06T05:19:15.728Z,22.30
2017-08-06T05:21:43.546Z,22.10
2017-08-06T05:24:11.524Z,21.60
2017-08-06T05:26:40.185Z,21.30
2017-08-06T05:29:08.020Z,21.00
2017-08-06T05:31:35.907Z,20.60
2017-08-06T05:34:03.750Z,20.20
2017-08-06T05:36:31.678Z,20.10
2017-08-06T05:38:59.515Z,19.90
2017-08-06T05:41:27.371Z,19.80
2017-08-06T05:43:55.222Z,19.90
2017-08-06T05:46:23.084Z,21.10
2017-08-06T05:48:51.013Z,22.40
2017-08-06T05:51:19.649Z,24.90
2017-08-06T05:53:47.484Z,24.80
2017-08-06T05:56:15.370Z,26.40
2017-08-06T05:58:43.203Z,27.60
2017-08-06T06:01:11.087Z,28.70
2017-08-06T06:03:38.927Z,29.30
2017-08-06T06:06:07.511Z,26.90
2017-08-06T06:08:36.139Z,25.50
2017-08-06T06:11:03.976Z,25.50
2017-08-06T06:13:31.869Z,24.90
2017-08-06T06:15:59.731Z,24.20
2017-08-06T06:18:27.564Z,24.20
2017-08-06T06:20:55.414Z,25.70
2017-08-06T06:23:23.980Z,28.60
2017-08-06T06:25:52.672Z,29.50
2017-08-06T06:28:21.276Z,30.50
2017-08-06T06:30:49.109Z,30.50
2017-08-06T06:33:16.985Z,30.30
2017-08-06T06:35:44.825Z,31.30
2017-08-06T06:38:13.498Z,32.90
2017-08-06T06:40:41.324Z,32.90
2017-08-06T06:43:09.181Z,32.80
2017-08-06T06:45:37.066Z,32.60
2017-08-06T06:48:04.898Z,32.50
2017-08-06T06:50:32.836Z,32.30
2017-08-06T06:53:00.677Z,30.90
2017-08-06T06:55:28.529Z,30.10
2017-08-06T06:57:56.399Z,28.90
2017-08-06T07:00:24.253Z,28.40
2017-08-06T07:02:52.132Z,27.40
2017-08-06T07:05:19.959Z,25.90
2017-08-06T07:07:47.796Z,24.50
2017-08-06T07:10:15.651Z,23.20
2017-08-06T07:12:44.249Z,22.40
2017-08-06T07:15:12.103Z,22.30
2017-08-06T07:17:39.920Z,22.20
2017-08-06T07:20:07.831Z,22.20
2017-08-06T07:22:35.678Z,22.40
2017-08-06T07:25:04.286Z,22.90
2017-08-06T07:27:32.174Z,22.90
2017-08-06T07:30:00.001Z,22.90
2017-08-06T07:32:28.667Z,23.10
2017-08-06T07:34:57.270Z,23.00
2017-08-06T07:37:25.089Z,23.00
2017-08-06T07:39:52.942Z,22.80
2017-08-06T07:42:20.760Z,22.70
2017-08-06T07:44:48.628Z,22.60
2017-08-06T07:47:16.445Z,22.40
2017-08-06T07:49:44.253Z,22.30
2017-08-06T07:52:12.120Z,22.20
2017-08-06T07:54:39.950Z,22.20
2017-08-06T07:57:07.834Z,22.50
2017-08-06T07:59:35.673Z,22.40
2017-08-06T08:02:03.532Z,22.30
2017-08-06T08:04:31.385Z,22.20
2017-08-06T08:09:33.045Z,22.80
2017-08-06T08:12:00.864Z,22.80
2017-08-06T08:14:28.695Z,23.00
2017-08-06T08:16:56.560Z,23.40
2017-08-06T08:19:24.387Z,24.10
2017-08-06T08:21:52.274Z,24.50
2017-08-06T08:24:20.098Z,25.20
2017-08-06T08:26:47.987Z,26.00
2017-08-06T08:29:15.845Z,26.50
2017-08-06T08:31:43.669Z,28.00
2017-08-06T08:34:11.551Z,29.00
2017-08-06T08:36:39.372Z,28.00
2017-08-06T08:39:07.198Z,26.80
2017-08-06T08:41:35.048Z,26.30
2017-08-06T08:44:02.883Z,26.00
2017-08-06T08:46:30.769Z,26.60
2017-08-06T08:48:58.639Z,27.60
2017-08-06T08:51:26.495Z,28.20
2017-08-06T08:53:54.347Z,28.10
2017-08-06T08:56:22.190Z,29.40
2017-08-06T08:58:51.048Z,33.00
2017-08-06T09:01:18.881Z,32.90
2017-08-06T09:03:46.773Z,33.90
2017-08-06T09:06:14.645Z,34.40
2017-08-06T09:08:42.462Z,35.20
2017-08-06T09:11:10.366Z,35.30
2017-08-06T09:13:38.198Z,32.90
2017-08-06T09:16:06.039Z,31.60
2017-08-06T09:18:33.941Z,32.00
2017-08-06T09:21:01.769Z,32.50
2017-08-06T09:23:29.663Z,32.10
2017-08-06T09:25:57.496Z,32.40
2017-08-06T09:28:25.378Z,32.80
2017-08-06T09:30:53.298Z,33.10
2017-08-06T09:33:21.887Z,32.10
2017-08-06T09:35:50.536Z,31.20
2017-08-06T09:38:18.357Z,31.20
2017-08-06T09:40:46.192Z,30.30
2017-08-06T09:43:14.850Z,28.70
2017-08-06T09:45:42.673Z,28.60
2017-08-06T09:48:10.554Z,27.50
2017-08-06T09:50:38.403Z,26.80
2017-08-06T09:53:06.234Z,26.10
2017-08-06T09:55:34.859Z,27.20
2017-08-06T09:58:02.671Z,27.20
2017-08-06T10:00:31.333Z,27.00
2017-08-06T10:02:59.189Z,27.00
2017-08-06T10:05:27.054Z,27.10
2017-08-06T10:07:54.930Z,27.30
2017-08-06T10:10:22.768Z,27.30
2017-08-06T10:12:50.934Z,27.20
2017-08-06T10:15:18.797Z,27.30
2017-08-06T10:17:46.702Z,26.90
2017-08-06T10:20:14.654Z,27.00
2017-08-06T10:22:42.718Z,26.90
2017-08-06T10:25:10.642Z,26.70
2017-08-06T10:27:38.481Z,26.60
2017-08-06T10:30:08.143Z,26.40
2017-08-06T10:32:35.989Z,26.40
2017-08-06T10:35:03.823Z,26.50
2017-08-06T10:37:31.800Z,26.20
2017-08-06T10:39:59.697Z,26.40
2017-08-06T10:42:27.667Z,26.40
2017-08-06T10:44:55.824Z,26.20
2017-08-06T10:47:23.715Z,26.30
2017-08-06T10:49:51.680Z,26.30
2017-08-06T10:52:19.633Z,26.40
2017-08-06T10:54:47.543Z,26.60
2017-08-06T10:57:16.190Z,27.50
2017-08-06T10:59:44.076Z,27.40
2017-08-06T11:02:11.996Z,27.80
2017-08-06T11:04:39.851Z,27.70
2017-08-06T11:07:08.467Z,27.80
2017-08-06T11:09:36.421Z,27.60
2017-08-06T11:12:04.291Z,27.50
2017-08-06T11:14:32.219Z,26.80
2017-08-06T11:17:00.143Z,26.40
2017-08-06T11:19:28.742Z,26.30
2017-08-06T11:21:57.492Z,26.40
2017-08-06T11:24:25.353Z,26.40
2017-08-06T11:26:53.249Z,26.60
2017-08-06T11:29:22.011Z,26.10
2017-08-06T11:31:49.862Z,26.00
2017-08-06T11:34:17.739Z,25.80
2017-08-06T11:36:45.557Z,25.80
2017-08-06T11:39:13.441Z,25.70
2017-08-06T11:41:41.347Z,26.20
2017-08-06T11:44:09.928Z,27.30
2017-08-06T11:46:38.035Z,27.30
2017-08-06T11:49:05.972Z,27.70
2017-08-06T11:51:33.912Z,28.00
2017-08-06T11:54:01.816Z,27.90
2017-08-06T11:56:29.663Z,27.80
2017-08-06T11:58:57.740Z,27.70
2017-08-06T12:01:25.700Z,27.30
2017-08-06T12:03:53.641Z,27.10
2017-08-06T12:06:21.528Z,27.00
2017-08-06T12:08:49.416Z,26.70
2017-08-06T12:11:17.354Z,26.40
2017-08-06T12:13:45.947Z,26.20
2017-08-06T12:16:13.869Z,26.20
2017-08-06T12:18:42.843Z,26.20
2017-08-06T12:21:12.098Z,26.20
2017-08-06T12:23:39.997Z,26.00
2017-08-06T12:26:08.001Z,25.90
2017-08-06T12:28:36.093Z,25.90
2017-08-06T12:31:04.744Z,24.90
2017-08-06T12:33:32.596Z,24.80
2017-08-06T12:36:00.481Z,24.60
2017-08-06T12:38:28.392Z,24.30
2017-08-06T12:40:56.279Z,24.20
2017-08-06T12:43:24.146Z,24.30
2017-08-06T12:45:51.989Z,24.40
2017-08-06T12:48:19.857Z,24.50
2017-08-06T12:50:47.708Z,24.60
2017-08-06T12:53:16.326Z,24.50
2017-08-06T12:55:44.161Z,24.40
2017-08-06T12:58:12.204Z,24.50
2017-08-06T13:00:40.151Z,24.70
2017-08-06T13:03:08.796Z,25.20
2017-08-06T13:05:36.699Z,25.10
2017-08-06T13:08:05.319Z,25.40
2017-08-06T13:10:33.236Z,25.40
2017-08-06T13:13:01.101Z,25.60
2017-08-06T13:15:28.958Z,25.60
2017-08-06T13:17:56.920Z,25.70
2017-08-06T13:20:24.732Z,25.70
2017-08-06T13:22:52.552Z,25.60
2017-08-06T13:25:20.428Z,25.70
2017-08-06T13:27:49.050Z,26.00
2017-08-06T13:30:16.937Z,25.90
2017-08-06T13:32:44.792Z,26.20
2017-08-06T13:35:12.660Z,26.50
2017-08-06T13:37:40.546Z,26.50
2017-08-06T13:40:08.362Z,26.40
2017-08-06T13:42:36.256Z,26.30
2017-08-06T13:45:04.095Z,26.10
2017-08-06T13:47:31.942Z,26.00
2017-08-06T13:49:59.792Z,26.00
2017-08-06T13:52:28.384Z,26.30
2017-08-06T13:54:56.309Z,26.20
2017-08-06T13:57:24.148Z,26.10
2017-08-06T13:59:51.979Z,26.10
2017-08-06T14:02:19.842Z,26.40
2017-08-06T14:04:47.671Z,26.50
2017-08-06T14:07:15.528Z,26.20
2017-08-06T14:09:43.396Z,25.60
2017-08-06T14:12:11.225Z,25.50
2017-08-06T14:14:39.112Z,25.70
2017-08-06T14:17:07.068Z,25.70
2017-08-06T14:19:34.919Z,25.40
2017-08-06T14:22:02.789Z,25.50
2017-08-06T14:24:30.677Z,25.80
2017-08-06T14:26:58.507Z,26.00
2017-08-06T14:29:26.362Z,26.00
2017-08-06T14:31:54.200Z,26.00
2017-08-06T14:34:22.820Z,26.00
2017-08-06T14:36:50.636Z,25.90
2017-08-06T14:39:19.299Z,25.30
2017-08-06T14:41:47.178Z,25.30
2017-08-06T14:44:15.796Z,25.40
2017-08-06T14:46:43.658Z,25.30
2017-08-06T14:49:11.500Z,25.30
2017-08-06T14:51:40.103Z,25.10
2017-08-06T14:54:07.964Z,25.10
2017-08-06T14:56:35.817Z,25.10
2017-08-06T14:59:03.741Z,25.10
2017-08-06T15:01:31.624Z,25.10
2017-08-06T15:04:00.227Z,24.30
2017-08-06T15:06:28.085Z,24.30
2017-08-06T15:08:55.929Z,24.40
2017-08-06T15:11:23.861Z,24.60
2017-08-06T15:13:51.707Z,24.70
2017-08-06T15:16:19.550Z,24.60
2017-08-06T15:18:47.440Z,24.50
2017-08-06T15:21:15.274Z,24.30
2017-08-06T15:23:43.160Z,24.30
2017-08-06T15:26:11.159Z,24.30
2017-08-06T15:28:38.984Z,24.20
2017-08-06T15:31:06.907Z,24.00
2017-08-06T15:33:34.928Z,23.80
2017-08-06T15:36:02.834Z,23.50
2017-08-06T15:38:30.687Z,23.40
2017-08-06T15:40:58.559Z,23.50
2017-08-06T15:43:26.438Z,23.50
2017-08-06T15:45:55.173Z,23.20
2017-08-06T15:48:23.078Z,23.20
2017-08-06T15:50:50.924Z,23.20
2017-08-06T15:53:18.752Z,23.20
2017-08-06T15:55:47.264Z,23.10
2017-08-06T15:58:15.089Z,23.10
2017-08-06T16:00:43.228Z,23.00
2017-08-06T16:03:11.831Z,23.20
2017-08-06T16:05:39.664Z,23.20
2017-08-06T16:08:07.511Z,23.40
2017-08-06T16:10:35.366Z,23.40
2017-08-06T16:13:03.348Z,23.60
2017-08-06T16:15:31.264Z,23.60
2017-08-06T16:17:59.853Z,23.50
2017-08-06T16:20:27.852Z,23.40
2017-08-06T16:22:55.723Z,23.20
2017-08-06T16:25:23.622Z,22.80
2017-08-06T16:27:51.455Z,22.90
2017-08-06T16:30:19.287Z,22.70
2017-08-06T16:32:47.424Z,22.60
2017-08-06T16:35:15.300Z,22.60
2017-08-06T16:37:44.255Z,22.60
2017-08-06T16:40:13.029Z,22.60
2017-08-06T16:42:40.933Z,22.60
2017-08-06T16:45:08.840Z,22.70
2017-08-06T16:47:36.722Z,22.60
2017-08-06T16:50:04.675Z,22.50
2017-08-06T16:52:32.719Z,22.30
2017-08-06T16:55:00.796Z,22.20
2017-08-06T16:57:29.738Z,22.20
2017-08-06T16:59:57.927Z,22.20
2017-08-06T17:02:25.845Z,22.10
2017-08-06T17:04:55.832Z,21.90
2017-08-06T17:07:23.737Z,21.80
2017-08-06T17:09:51.783Z,21.80
2017-08-06T17:12:19.850Z,21.80
2017-08-06T17:14:47.811Z,21.70
2017-08-06T17:17:15.792Z,21.70
2017-08-06T17:19:43.755Z,21.70
2017-08-06T17:22:11.619Z,21.60
2017-08-06T17:24:39.459Z,21.60
2017-08-06T17:27:07.534Z,21.50
2017-08-06T17:29:35.390Z,21.50
2017-08-06T17:32:03.201Z,21.40
2017-08-06T17:34:31.886Z,21.10
2017-08-06T17:37:00.464Z,21.00
2017-08-06T17:39:28.376Z,21.00
2017-08-06T17:41:56.240Z,21.00
2017-08-06T17:44:24.205Z,20.90
2017-08-06T17:46:52.199Z,20.90
2017-08-06T17:49:20.172Z,20.80
2017-08-06T17:51:48.246Z,20.70
2017-08-06T17:54:16.300Z,20.60
2017-08-06T17:56:44.262Z,20.60
2017-08-06T17:59:12.363Z,20.50
2017-08-06T18:01:41.131Z,20.40
2017-08-06T18:04:09.021Z,20.30
2017-08-06T18:06:36.928Z,20.30
2017-08-06T18:09:05.135Z,20.30
2017-08-06T18:11:33.806Z,20.20
2017-08-06T18:14:02.540Z,20.20
2017-08-06T18:16:30.713Z,20.20
2017-08-06T18:18:58.585Z,20.10
2017-08-06T18:21:26.425Z,20.10
2017-08-06T18:23:54.280Z,20.10
2017-08-06T18:26:22.957Z,20.00
2017-08-06T18:28:50.933Z,20.00
2017-08-06T18:31:19.553Z,19.90
2017-08-06T18:33:47.452Z,19.90
2017-08-06T18:36:16.703Z,19.90
2017-08-06T18:38:44.568Z,19.80
2017-08-06T18:41:13.388Z,19.80
2017-08-06T18:43:41.236Z,19.80
2017-08-06T18:46:09.075Z,19.70
2017-08-06T18:48:36.928Z,19.70
2017-08-06T18:51:04.745Z,19.70
2017-08-06T18:53:32.821Z,19.60
2017-08-06T18:56:01.617Z,19.50
2017-08-06T18:58:30.242Z,19.40
2017-08-06T19:00:58.129Z,19.40
2017-08-06T19:03:26.466Z,19.30
2017-08-06T19:05:54.365Z,19.30
2017-08-06T19:08:22.309Z,19.30
2017-08-06T19:10:50.410Z,19.30
2017-08-06T19:13:18.272Z,19.20
2017-08-06T19:15:46.318Z,19.10
2017-08-06T19:18:14.222Z,19.10
2017-08-06T19:20:42.071Z,19.00
2017-08-06T19:23:10.050Z,19.00
2017-08-06T19:25:37.891Z,19.00
2017-08-06T19:28:06.626Z,19.00
2017-08-06T19:30:34.517Z,18.90
2017-08-06T19:33:02.336Z,18.90
2017-08-06T19:35:30.178Z,18.80
2017-08-06T19:37:58.115Z,18.80
2017-08-06T19:40:25.997Z,18.80
2017-08-06T19:42:53.876Z,18.80
2017-08-06T19:45:21.737Z,18.80
2017-08-06T19:47:49.774Z,18.70
2017-08-06T19:50:17.614Z,18.60
2017-08-06T19:52:45.460Z,18.60
2017-08-06T19:55:13.347Z,18.60
2017-08-06T19:57:41.225Z,18.60
2017-08-06T20:00:09.340Z,18.50
2017-08-06T20:02:37.164Z,18.50
2017-08-06T20:05:05.020Z,18.50
2017-08-06T20:07:32.924Z,18.50
2017-08-06T20:10:00.774Z,18.50
2017-08-06T20:12:28.684Z,18.50
2017-08-06T20:14:57.299Z,18.40
2017-08-06T20:17:25.124Z,18.40
2017-08-06T20:19:53.799Z,18.40
2017-08-06T20:22:21.688Z,18.40
2017-08-06T20:24:49.691Z,18.40
2017-08-06T20:27:17.579Z,18.40
2017-08-06T20:29:45.486Z,18.30
2017-08-06T20:32:13.363Z,18.30
2017-08-06T20:34:41.258Z,18.30
2017-08-06T20:37:09.153Z,18.20
2017-08-06T20:39:36.996Z,18.20
2017-08-06T20:42:04.858Z,18.10
2017-08-06T20:44:32.705Z,18.00
2017-08-06T20:47:00.549Z,18.00
2017-08-06T20:49:28.565Z,17.90
2017-08-06T20:51:56.398Z,17.70
2017-08-06T20:54:24.243Z,17.70
2017-08-06T20:56:52.148Z,17.60
2017-08-06T20:59:19.989Z,17.50
2017-08-06T21:01:47.886Z,17.50
2017-08-06T21:04:15.717Z,17.50
2017-08-06T21:06:43.553Z,17.50
2017-08-06T21:09:11.445Z,17.50
2017-08-06T21:11:39.259Z,17.50
2017-08-06T21:14:07.158Z,17.40
2017-08-06T21:16:34.978Z,17.50
2017-08-06T21:19:02.803Z,17.50
2017-08-06T21:21:30.669Z,17.40
2017-08-06T21:23:58.514Z,17.40
2017-08-06T21:26:26.425Z,17.50
2017-08-06T21:28:54.274Z,17.50
2017-08-06T21:31:22.104Z,17.40
2017-08-06T21:33:49.956Z,17.40
2017-08-06T21:36:17.815Z,17.30
2017-08-06T21:38:45.698Z,17.30
2017-08-06T21:41:13.518Z,17.20
2017-08-06T21:43:42.096Z,17.10
2017-08-06T21:46:10.731Z,17.10
2017-08-06T21:48:38.551Z,17.10
2017-08-06T21:51:07.193Z,17.00
2017-08-06T21:53:35.022Z,17.00
2017-08-06T21:56:02.853Z,17.00
2017-08-06T21:58:31.465Z,16.90
2017-08-06T22:00:59.288Z,16.90
2017-08-06T22:03:27.191Z,16.90
2017-08-06T22:05:55.028Z,16.80
2017-08-06T22:08:23.612Z,16.70
2017-08-06T22:10:51.474Z,16.70
2017-08-06T22:13:20.140Z,16.70
2017-08-06T22:15:48.018Z,16.60
2017-08-06T22:18:17.500Z,16.70
2017-08-06T22:20:46.187Z,16.70
2017-08-06T22:23:14.064Z,16.70
2017-08-06T22:25:42.664Z,16.60
2017-08-06T22:28:10.559Z,16.60
2017-08-06T22:30:38.427Z,16.50
2017-08-06T22:33:06.235Z,16.50
2017-08-06T22:35:34.847Z,16.30
2017-08-06T22:38:02.680Z,16.30
2017-08-06T22:40:31.319Z,16.30
2017-08-06T22:42:59.132Z,16.20
2017-08-06T22:45:27.713Z,16.10
2017-08-06T22:47:56.376Z,16.00
2017-08-06T22:50:24.198Z,16.00
2017-08-06T22:52:52.091Z,16.00
2017-08-06T22:55:19.920Z,15.90
2017-08-06T22:57:47.733Z,15.90
2017-08-06T23:00:15.574Z,15.80
2017-08-06T23:02:43.403Z,15.70
2017-08-06T23:05:11.322Z,15.60
2017-08-06T23:07:39.147Z,15.60
2017-08-06T23:10:06.953Z,15.50
2017-08-06T23:12:35.556Z,15.40
2017-08-06T23:15:03.383Z,15.40
2017-08-06T23:17:31.255Z,15.40
2017-08-06T23:19:59.085Z,15.40
2017-08-06T23:22:26.909Z,15.30
2017-08-06T23:24:54.758Z,15.30
2017-08-06T23:27:23.343Z,15.20
2017-08-06T23:29:51.215Z,15.20
2017-08-06T23:32:19.028Z,15.20
2017-08-06T23:34:46.848Z,15.10
2017-08-06T23:37:14.748Z,15.10
2017-08-06T23:39:42.575Z,15.00
2017-08-06T23:42:10.447Z,15.00
2017-08-06T23:44:38.277Z,15.10
2017-08-06T23:47:06.927Z,14.90
2017-08-06T23:49:34.761Z,14.90
2017-08-06T23:52:02.580Z,14.90
2017-08-06T23:54:31.228Z,14.80
2017-08-06T23:56:59.048Z,14.80
2017-08-06T23:59:27.617Z,14.80
